createdAt,value
2023-04-26T00:01:58.904Z,2.00
2023-04-26T00:04:26.000Z,2.58
2023-04-26T00:06:52.941Z,2.33
2023-04-26T00:09:19.751Z,1.38
2023-04-26T00:11:46.698Z,1.60
2023-04-26T00:14:13.795Z,2.22
2023-04-26T00:16:40.664Z,0.70
2023-04-26T00:19:07.488Z,2.15
2023-04-26T00:21:34.243Z,2.53
2023-04-26T00:24:01.094Z,2.88
2023-04-26T00:26:27.884Z,0.98
2023-04-26T00:28:54.951Z,2.95
2023-04-26T00:31:21.933Z,1.55
2023-04-26T00:33:48.855Z,2.88
2023-04-26T00:36:19.149Z,3.45
2023-04-26T00:38:46.819Z,2.58
2023-04-26T00:41:13.802Z,2.72
2023-04-26T00:43:41.153Z,4.57
2023-04-26T00:46:10.994Z,1.80
2023-04-26T00:48:37.911Z,2.05
2023-04-26T00:51:05.153Z,1.80
2023-04-26T00:53:32.242Z,3.25
2023-04-26T00:55:59.144Z,4.25
2023-04-26T00:58:26.074Z,1.50
2023-04-26T01:00:52.977Z,2.40
2023-04-26T01:03:19.924Z,5.47
2023-04-26T01:05:46.885Z,2.63
2023-04-26T01:08:17.131Z,3.15
2023-04-26T01:10:43.887Z,2.97
2023-04-26T01:13:11.492Z,2.83
2023-04-26T01:15:38.412Z,4.43
2023-04-26T01:18:05.318Z,4.32
2023-04-26T01:20:32.284Z,2.65
2023-04-26T01:22:59.026Z,2.53
2023-04-26T01:25:25.996Z,2.00
2023-04-26T01:27:52.787Z,2.55
2023-04-26T01:30:19.603Z,2.88
2023-04-26T01:32:46.568Z,4.13
2023-04-26T01:35:13.431Z,3.15
2023-04-26T01:37:40.427Z,3.95
2023-04-26T01:40:08.040Z,4.55
2023-04-26T01:42:34.924Z,2.05
2023-04-26T01:45:01.678Z,2.63
2023-04-26T01:47:28.438Z,3.63
2023-04-26T01:49:55.214Z,2.35
2023-04-26T01:52:22.884Z,3.95
2023-04-26T01:54:49.692Z,3.60
2023-04-26T01:57:16.640Z,4.38
2023-04-26T01:59:43.444Z,4.05
2023-04-26T02:02:10.322Z,3.72
2023-04-26T02:04:37.434Z,3.83
2023-04-26T02:07:04.238Z,3.15
2023-04-26T02:09:31.001Z,3.90
2023-04-26T02:11:57.826Z,3.58
2023-04-26T02:14:24.707Z,7.00
2023-04-26T02:16:51.907Z,2.67
2023-04-26T02:19:19.002Z,3.90
2023-04-26T02:21:57.216Z,2.95
2023-04-26T02:24:24.756Z,5.57
2023-04-26T02:26:52.770Z,3.65
2023-04-26T02:29:24.624Z,2.42
2023-04-26T02:32:02.912Z,3.78
2023-04-26T02:34:29.750Z,3.42
2023-04-26T02:36:56.585Z,2.78
2023-04-26T02:39:23.679Z,5.90
2023-04-26T02:41:51.102Z,4.80
2023-04-26T02:44:17.867Z,5.35
2023-04-26T02:46:44.692Z,5.80
2023-04-26T02:49:11.500Z,5.45
2023-04-26T02:51:38.331Z,4.22
2023-04-26T02:54:06.967Z,5.43
2023-04-26T02:56:34.010Z,5.50
2023-04-26T02:59:00.834Z,3.47
2023-04-26T03:01:27.765Z,6.43
2023-04-26T03:03:54.891Z,4.45
2023-04-26T03:06:21.812Z,5.85
2023-04-26T03:08:48.622Z,10.05
2023-04-26T03:11:15.555Z,5.13
2023-04-26T03:13:42.302Z,4.38
2023-04-26T03:16:09.421Z,4.95
2023-04-26T03:18:36.285Z,5.35
2023-04-26T03:21:03.819Z,5.22
2023-04-26T03:23:31.021Z,7.05
2023-04-26T03:25:57.846Z,9.63
2023-04-26T03:28:24.812Z,4.88
2023-04-26T03:30:51.869Z,4.80
2023-04-26T03:33:18.691Z,3.88
2023-04-26T03:35:45.622Z,6.22
2023-04-26T03:38:12.667Z,4.45
2023-04-26T03:40:39.495Z,5.93
2023-04-26T03:43:06.575Z,5.70
2023-04-26T03:45:33.465Z,5.68
2023-04-26T03:48:00.579Z,6.35
2023-04-26T03:50:27.510Z,4.72
2023-04-26T03:52:54.321Z,5.00
2023-04-26T03:55:21.184Z,5.00
2023-04-26T03:57:48.331Z,5.90
2023-04-26T04:00:15.342Z,5.20
2023-04-26T04:02:42.761Z,8.45
2023-04-26T04:05:10.360Z,5.43
2023-04-26T04:07:37.493Z,7.18
2023-04-26T04:10:04.736Z,4.97
2023-04-26T04:12:32.151Z,4.80
2023-04-26T04:14:59.017Z,5.35
2023-04-26T04:17:26.061Z,5.72
2023-04-26T04:19:52.894Z,6.93
2023-04-26T04:22:19.703Z,6.80
2023-04-26T04:24:47.463Z,6.35
2023-04-26T04:27:15.021Z,7.47
2023-04-26T04:29:42.322Z,6.03
2023-04-26T04:32:09.155Z,6.05
2023-04-26T04:34:39.455Z,8.45
2023-04-26T04:37:06.236Z,5.10
2023-04-26T04:39:33.106Z,4.78
2023-04-26T04:42:00.499Z,6.25
2023-04-26T04:44:27.460Z,7.03
2023-04-26T04:46:54.385Z,7.97
2023-04-26T04:49:21.297Z,6.75
2023-04-26T04:51:48.429Z,12.18
2023-04-26T04:54:18.627Z,6.82
2023-04-26T04:56:45.432Z,8.50
2023-04-26T04:59:12.298Z,6.13
2023-04-26T05:01:39.133Z,3.05
2023-04-26T05:04:06.973Z,3.72
2023-04-26T05:06:33.995Z,3.38
2023-04-26T05:09:01.626Z,6.40
2023-04-26T05:11:28.415Z,7.32
2023-04-26T05:13:55.487Z,11.70
2023-04-26T05:16:22.695Z,12.20
2023-04-26T05:18:49.628Z,7.28
2023-04-26T05:21:16.525Z,6.55
2023-04-26T05:23:43.378Z,13.50
2023-04-26T05:26:16.548Z,14.45
2023-04-26T05:28:43.436Z,7.65
2023-04-26T05:31:11.546Z,4.93
2023-04-26T05:33:38.609Z,5.03
2023-04-26T05:36:06.102Z,5.07
2023-04-26T05:38:32.980Z,3.22
2023-04-26T05:40:59.692Z,5.95
2023-04-26T05:43:26.596Z,10.95
2023-04-26T05:45:54.090Z,9.65
2023-04-26T05:48:24.451Z,7.80
2023-04-26T05:50:51.787Z,7.05
2023-04-26T05:53:19.428Z,7.72
2023-04-26T05:55:46.353Z,7.78
2023-04-26T05:58:13.138Z,6.75
2023-04-26T06:00:39.962Z,5.47
2023-04-26T06:03:07.015Z,5.70
2023-04-26T06:05:34.261Z,9.80
2023-04-26T06:08:01.743Z,6.55
2023-04-26T06:10:28.666Z,4.38
2023-04-26T06:12:56.001Z,7.13
2023-04-26T06:15:22.850Z,4.45
2023-04-26T06:17:49.640Z,4.90
2023-04-26T06:20:16.513Z,4.30
2023-04-26T06:22:43.278Z,5.05
2023-04-26T06:25:10.301Z,6.10
2023-04-26T06:27:39.121Z,8.57
2023-04-26T06:30:09.065Z,5.65
2023-04-26T06:32:36.416Z,8.17
2023-04-26T06:35:03.378Z,9.07
2023-04-26T06:37:30.328Z,10.57
2023-04-26T06:39:57.142Z,16.63
2023-04-26T06:42:23.981Z,6.60
2023-04-26T06:44:50.747Z,7.22
2023-04-26T06:47:17.541Z,8.25
2023-04-26T06:49:44.344Z,4.05
2023-04-26T06:52:11.144Z,7.70
2023-04-26T06:54:46.055Z,7.18
2023-04-26T06:57:21.056Z,2.90
2023-04-26T06:59:47.868Z,2.88
2023-04-26T07:02:15.775Z,2.55
2023-04-26T07:04:43.304Z,3.08
2023-04-26T07:07:12.999Z,3.13
2023-04-26T07:09:41.008Z,2.35
2023-04-26T07:12:07.894Z,2.75
2023-04-26T07:14:37.165Z,2.22
2023-04-26T07:17:05.373Z,1.48
2023-04-26T07:19:32.312Z,5.38
2023-04-26T07:21:59.131Z,4.97
2023-04-26T07:24:26.177Z,2.78
2023-04-26T07:26:52.995Z,2.80
2023-04-26T07:29:19.893Z,2.17
2023-04-26T07:31:47.135Z,2.15
2023-04-26T07:34:13.888Z,5.22
2023-04-26T07:36:40.671Z,7.95
2023-04-26T07:39:09.884Z,2.38
2023-04-26T07:41:36.706Z,7.53
2023-04-26T07:44:04.004Z,4.45
2023-04-26T07:46:31.011Z,12.73
2023-04-26T07:48:57.828Z,6.18
2023-04-26T07:51:24.698Z,14.70
2023-04-26T07:53:51.752Z,5.60
2023-04-26T07:56:18.846Z,5.40
2023-04-26T07:58:45.703Z,11.27
2023-04-26T08:01:13.125Z,16.08
2023-04-26T08:03:41.117Z,5.50
2023-04-26T08:06:09.027Z,5.72
2023-04-26T08:08:42.800Z,4.88
2023-04-26T08:11:12.645Z,2.75
2023-04-26T08:13:39.549Z,8.23
2023-04-26T08:16:06.778Z,2.83
2023-04-26T08:18:33.814Z,7.80
2023-04-26T08:21:01.074Z,5.70
2023-04-26T08:23:28.544Z,13.20
2023-04-26T08:25:55.285Z,9.55
2023-04-26T08:28:22.160Z,9.60
2023-04-26T08:30:49.121Z,6.78
2023-04-26T08:33:16.076Z,2.80
2023-04-26T08:35:42.807Z,4.03
2023-04-26T08:38:09.593Z,9.68
2023-04-26T08:40:36.674Z,4.57
2023-04-26T08:43:03.469Z,6.53
2023-04-26T08:45:30.237Z,6.22
2023-04-26T08:48:04.908Z,11.07
2023-04-26T08:50:33.577Z,2.75
2023-04-26T08:53:00.433Z,6.22
2023-04-26T08:55:27.223Z,3.85
2023-04-26T08:57:54.326Z,8.50
2023-04-26T09:00:22.209Z,3.70
2023-04-26T09:02:51.397Z,4.38
2023-04-26T09:05:24.219Z,4.60
2023-04-26T09:07:51.386Z,6.75
2023-04-26T09:10:21.971Z,10.43
2023-04-26T09:12:54.565Z,7.70
2023-04-26T09:15:22.921Z,5.57
2023-04-26T09:17:51.648Z,9.93
2023-04-26T09:20:23.098Z,6.32
2023-04-26T09:22:54.273Z,5.53
2023-04-26T09:25:31.540Z,6.45
2023-04-26T09:27:58.832Z,4.45
2023-04-26T09:30:25.857Z,11.90
2023-04-26T09:32:56.645Z,6.50
2023-04-26T09:35:29.587Z,4.68
2023-04-26T09:38:05.996Z,4.35
2023-04-26T09:40:40.702Z,3.72
2023-04-26T09:43:09.031Z,8.13
2023-04-26T09:45:51.856Z,5.68
2023-04-26T09:48:30.496Z,4.78
2023-04-26T09:51:14.056Z,6.18
2023-04-26T09:53:48.122Z,3.95
2023-04-26T09:56:21.980Z,5.20
2023-04-26T09:58:58.878Z,4.28
2023-04-26T10:01:26.991Z,5.15
2023-04-26T10:03:54.072Z,4.25
2023-04-26T10:06:21.043Z,3.15
2023-04-26T10:08:47.975Z,5.45
2023-04-26T10:11:14.786Z,4.60
2023-04-26T10:13:41.987Z,4.43
2023-04-26T10:16:09.973Z,5.57
2023-04-26T10:18:37.268Z,5.07
2023-04-26T10:21:19.820Z,2.10
2023-04-26T10:23:47.210Z,2.50
2023-04-26T10:26:57.653Z,3.80
2023-04-26T10:29:25.781Z,3.05
2023-04-26T10:32:09.628Z,3.28
2023-04-26T10:34:38.363Z,5.72
2023-04-26T10:37:11.815Z,8.55
2023-04-26T10:39:42.113Z,6.78
2023-04-26T10:42:25.934Z,3.85
2023-04-26T10:44:59.817Z,3.65
2023-04-26T10:47:34.741Z,3.05
2023-04-26T10:50:11.513Z,4.85
2023-04-26T10:53:04.084Z,3.58
2023-04-26T10:55:43.190Z,8.10
2023-04-26T10:58:32.256Z,3.63
2023-04-26T11:01:06.464Z,9.38
2023-04-26T11:03:33.522Z,4.07
2023-04-26T11:06:00.519Z,8.93
2023-04-26T11:08:32.012Z,4.88
2023-04-26T11:11:02.695Z,9.23
2023-04-26T11:13:33.508Z,2.42
2023-04-26T11:18:30.579Z,5.25
2023-04-26T11:21:00.486Z,2.95
2023-04-26T11:23:30.883Z,1.92
2023-04-26T11:26:03.493Z,6.70
2023-04-26T11:28:34.770Z,8.05
2023-04-26T11:31:03.114Z,11.13
2023-04-26T11:33:30.053Z,7.78
2023-04-26T11:35:57.865Z,3.63
2023-04-26T11:38:25.424Z,8.82
2023-04-26T11:41:02.422Z,3.30
2023-04-26T11:43:36.618Z,6.05
2023-04-26T11:46:05.108Z,4.13
2023-04-26T11:48:32.255Z,4.60
2023-04-26T11:50:59.757Z,6.95
2023-04-26T11:53:41.999Z,12.05
2023-04-26T11:56:18.733Z,4.90
2023-04-26T11:58:50.301Z,10.93
2023-04-26T12:01:21.179Z,10.50
2023-04-26T12:06:16.633Z,2.63
2023-04-26T12:08:52.310Z,7.70
2023-04-26T12:11:19.342Z,7.82
2023-04-26T12:13:46.620Z,7.20
2023-04-26T12:16:25.668Z,12.32
2023-04-26T12:18:53.797Z,6.00
2023-04-26T12:21:20.801Z,8.13
2023-04-26T12:23:48.157Z,6.80
2023-04-26T12:26:15.189Z,7.75
2023-04-26T12:28:42.442Z,7.28
2023-04-26T12:31:09.370Z,10.55
2023-04-26T12:33:36.572Z,2.78
2023-04-26T12:36:11.335Z,11.88
2023-04-26T12:38:39.016Z,12.73
2023-04-26T12:41:06.055Z,13.75
2023-04-26T12:43:32.939Z,4.45
2023-04-26T12:46:00.194Z,4.07
2023-04-26T12:48:27.070Z,10.15
2023-04-26T12:50:53.971Z,11.15
2023-04-26T12:53:21.114Z,11.25
2023-04-26T12:55:47.974Z,3.15
2023-04-26T12:58:15.073Z,8.68
2023-04-26T13:00:43.969Z,13.20
2023-04-26T13:03:14.297Z,7.95
2023-04-26T13:05:41.504Z,5.80
2023-04-26T13:08:08.412Z,4.30
2023-04-26T13:10:35.161Z,8.85
2023-04-26T13:13:02.009Z,8.32
2023-04-26T13:15:29.872Z,3.53
2023-04-26T13:17:56.842Z,11.27
2023-04-26T13:20:25.733Z,6.22
2023-04-26T13:22:53.449Z,9.65
2023-04-26T13:25:20.358Z,8.35
2023-04-26T13:27:47.239Z,5.35
2023-04-26T13:30:14.184Z,7.15
2023-04-26T13:32:41.164Z,6.65
2023-04-26T13:35:08.757Z,3.83
2023-04-26T13:37:35.572Z,8.65
2023-04-26T13:40:03.955Z,9.38
2023-04-26T13:42:30.859Z,9.02
2023-04-26T13:44:57.643Z,5.68
2023-04-26T13:47:24.541Z,2.88
2023-04-26T13:49:51.668Z,5.80
2023-04-26T13:52:18.571Z,7.82
2023-04-26T13:54:45.948Z,11.07
2023-04-26T13:57:12.905Z,20.60
2023-04-26T13:59:40.653Z,7.80
2023-04-26T14:02:07.533Z,10.82
2023-04-26T14:04:34.729Z,8.90
2023-04-26T14:07:01.746Z,6.93
2023-04-26T14:09:28.611Z,9.43
2023-04-26T14:12:07.159Z,8.40
2023-04-26T14:14:35.079Z,4.70
2023-04-26T14:17:01.938Z,7.90
2023-04-26T14:19:28.752Z,15.60
2023-04-26T14:21:55.709Z,8.15
2023-04-26T14:24:22.512Z,10.85
2023-04-26T14:26:49.345Z,15.27
2023-04-26T14:29:16.151Z,8.50
2023-04-26T14:31:43.002Z,10.45
2023-04-26T14:34:10.072Z,6.88
2023-04-26T14:36:36.976Z,6.53
2023-04-26T14:39:04.048Z,6.38
2023-04-26T14:41:31.073Z,15.73
2023-04-26T14:43:57.852Z,6.20
2023-04-26T14:46:24.757Z,5.18
2023-04-26T14:48:51.673Z,4.13
2023-04-26T14:51:18.509Z,10.57
2023-04-26T14:53:45.329Z,7.40
2023-04-26T14:56:12.156Z,8.43
2023-04-26T14:58:39.046Z,6.72
2023-04-26T15:01:05.919Z,6.40
2023-04-26T15:03:32.970Z,6.22
2023-04-26T15:06:00.136Z,8.55
2023-04-26T15:08:26.976Z,6.30
2023-04-26T15:10:54.072Z,10.02
2023-04-26T15:13:20.932Z,7.30
2023-04-26T15:15:47.881Z,5.55
2023-04-26T15:18:14.753Z,10.45
2023-04-26T15:20:41.589Z,5.53
2023-04-26T15:23:08.537Z,11.07
2023-04-26T15:25:36.935Z,6.55
2023-04-26T15:28:03.978Z,7.50
2023-04-26T15:30:30.827Z,9.88
2023-04-26T15:32:57.821Z,5.13
2023-04-26T15:35:25.177Z,7.40
2023-04-26T15:37:54.057Z,10.88
2023-04-26T15:40:24.693Z,7.10
2023-04-26T15:42:52.027Z,6.85
2023-04-26T15:45:21.804Z,5.28
2023-04-26T15:47:48.675Z,7.03
2023-04-26T15:50:15.616Z,8.82
2023-04-26T15:52:42.545Z,11.77
2023-04-26T15:55:09.990Z,6.03
2023-04-26T15:57:37.760Z,10.70
2023-04-26T16:00:09.891Z,6.07
2023-04-26T16:02:36.963Z,7.57
2023-04-26T16:05:04.609Z,9.82
2023-04-26T16:07:31.862Z,9.38
2023-04-26T16:09:58.939Z,6.72
2023-04-26T16:12:26.256Z,8.70
2023-04-26T16:14:53.481Z,6.20
2023-04-26T16:17:20.633Z,12.63
2023-04-26T16:19:48.592Z,7.13
2023-04-26T16:22:15.867Z,9.85
2023-04-26T16:24:42.767Z,8.20
2023-04-26T16:27:09.814Z,9.35
2023-04-26T16:29:37.067Z,9.02
2023-04-26T16:32:04.464Z,8.75
2023-04-26T16:34:31.601Z,10.88
2023-04-26T16:36:58.731Z,11.15
2023-04-26T16:39:26.048Z,19.77
2023-04-26T16:41:54.099Z,7.60
2023-04-26T16:44:21.303Z,17.67
2023-04-26T16:46:48.296Z,7.47
2023-04-26T16:49:15.334Z,6.85
2023-04-26T16:51:44.588Z,9.45
2023-04-26T16:54:11.504Z,15.48
2023-04-26T16:56:38.388Z,15.90
2023-04-26T16:59:05.187Z,10.65
2023-04-26T17:01:32.001Z,7.63
2023-04-26T17:03:59.028Z,11.25
2023-04-26T17:06:26.244Z,11.93
2023-04-26T17:08:53.246Z,13.40
2023-04-26T17:11:20.260Z,9.57
2023-04-26T17:13:47.282Z,7.75
2023-04-26T17:16:14.194Z,16.88
2023-04-26T17:18:41.791Z,8.55
2023-04-26T17:21:08.806Z,15.63
2023-04-26T17:23:35.657Z,8.52
2023-04-26T17:26:02.574Z,14.35
2023-04-26T17:28:29.454Z,3.85
2023-04-26T17:30:56.356Z,6.30
2023-04-26T17:33:23.705Z,3.30
2023-04-26T17:35:50.629Z,11.95
2023-04-26T17:38:17.605Z,9.38
2023-04-26T17:40:44.372Z,13.77
2023-04-26T17:43:11.472Z,6.07
2023-04-26T17:45:38.432Z,9.55
2023-04-26T17:48:05.698Z,28.33
2023-04-26T17:50:32.694Z,30.42
2023-04-26T17:52:59.643Z,24.83
2023-04-26T17:55:27.085Z,21.35
2023-04-26T17:57:54.160Z,30.42
2023-04-26T18:00:21.504Z,21.05
2023-04-26T18:02:48.666Z,22.63
2023-04-26T18:05:16.473Z,18.35
2023-04-26T18:07:43.383Z,26.20
2023-04-26T18:10:10.514Z,23.48
2023-04-26T18:12:38.324Z,23.00
2023-04-26T18:15:06.534Z,26.70
2023-04-26T18:17:33.653Z,19.08
2023-04-26T18:20:01.291Z,16.50
2023-04-26T18:22:28.081Z,32.33
2023-04-26T18:24:55.136Z,36.40
2023-04-26T18:27:22.411Z,52.50
2023-04-26T18:29:49.553Z,36.80
2023-04-26T18:32:16.535Z,26.20
2023-04-26T18:34:44.467Z,17.42
2023-04-26T18:37:11.724Z,20.25
2023-04-26T18:39:41.699Z,21.85
2023-04-26T18:42:08.860Z,22.57
2023-04-26T18:44:36.321Z,21.70
2023-04-26T18:47:03.392Z,21.30
2023-04-26T18:49:30.885Z,21.08
2023-04-26T18:51:57.925Z,22.35
2023-04-26T18:54:26.318Z,20.13
2023-04-26T18:56:54.209Z,20.05
2023-04-26T18:59:21.324Z,23.40
2023-04-26T19:01:49.245Z,14.23
2023-04-26T19:04:16.589Z,19.00
2023-04-26T19:06:44.063Z,22.08
2023-04-26T19:09:11.801Z,24.10
2023-04-26T19:11:39.066Z,22.00
2023-04-26T19:14:06.309Z,22.02
2023-04-26T19:16:33.693Z,19.42
2023-04-26T19:19:00.918Z,27.40
2023-04-26T19:21:27.960Z,22.95
2023-04-26T19:23:55.128Z,22.02
2023-04-26T19:26:22.073Z,25.38
2023-04-26T19:28:49.145Z,22.13
2023-04-26T19:31:16.309Z,18.45
2023-04-26T19:33:43.767Z,18.65
2023-04-26T19:36:10.878Z,22.75
2023-04-26T19:38:38.335Z,20.88
2023-04-26T19:41:05.108Z,16.63
2023-04-26T19:43:32.033Z,22.85
2023-04-26T19:45:58.993Z,18.42
2023-04-26T19:48:26.446Z,20.65
2023-04-26T19:50:53.253Z,18.20
2023-04-26T19:53:20.115Z,18.67
2023-04-26T19:55:46.946Z,19.20
2023-04-26T19:58:13.769Z,21.27
2023-04-26T20:00:40.748Z,23.90
2023-04-26T20:03:07.915Z,16.08
2023-04-26T20:05:34.933Z,20.65
2023-04-26T20:08:01.977Z,16.90
2023-04-26T20:10:32.615Z,20.05
2023-04-26T20:13:00.830Z,23.65
2023-04-26T20:15:28.062Z,16.63
2023-04-26T20:17:55.198Z,16.27
2023-04-26T20:20:22.219Z,21.73
2023-04-26T20:22:49.131Z,15.95
2023-04-26T20:25:16.030Z,17.52
2023-04-26T20:27:42.822Z,12.07
2023-04-26T20:30:10.123Z,16.80
2023-04-26T20:32:37.055Z,11.10
2023-04-26T20:35:04.992Z,15.38
2023-04-26T20:37:31.980Z,15.35
2023-04-26T20:39:58.790Z,18.00
2023-04-26T20:42:25.597Z,17.73
2023-04-26T20:44:52.459Z,25.90
2023-04-26T20:47:19.386Z,19.75
2023-04-26T20:49:46.298Z,16.60
2023-04-26T20:52:13.154Z,16.98
2023-04-26T20:54:40.116Z,22.25
2023-04-26T20:57:06.998Z,17.52
2023-04-26T20:59:33.898Z,21.42
2023-04-26T21:02:01.660Z,18.95
2023-04-26T21:04:28.989Z,18.67
2023-04-26T21:06:56.148Z,15.18
2023-04-26T21:09:23.003Z,18.00
2023-04-26T21:11:49.882Z,17.65
2023-04-26T21:14:16.710Z,23.02
2023-04-26T21:16:43.587Z,24.30
2023-04-26T21:19:10.886Z,14.40
2023-04-26T21:21:38.302Z,16.30
2023-04-26T21:24:05.421Z,10.93
2023-04-26T21:26:32.251Z,13.68
2023-04-26T21:28:59.172Z,9.05
2023-04-26T21:31:26.113Z,11.18
2023-04-26T21:33:52.976Z,14.02
2023-04-26T21:36:19.856Z,15.48
2023-04-26T21:38:46.898Z,16.65
2023-04-26T21:41:13.778Z,17.17
2023-04-26T21:43:40.666Z,14.98
2023-04-26T21:46:08.231Z,14.32
2023-04-26T21:48:35.403Z,13.57
2023-04-26T21:51:02.335Z,13.13
2023-04-26T21:53:29.138Z,14.55
2023-04-26T21:55:56.057Z,14.13
2023-04-26T21:58:22.990Z,14.82
2023-04-26T22:00:50.159Z,14.73
2023-04-26T22:03:17.500Z,14.38
2023-04-26T22:05:44.577Z,15.30
2023-04-26T22:08:14.566Z,16.40
2023-04-26T22:10:41.992Z,15.47
2023-04-26T22:13:08.903Z,18.05
2023-04-26T22:15:36.510Z,16.30
2023-04-26T22:18:03.700Z,16.15
2023-04-26T22:20:30.890Z,15.45
2023-04-26T22:22:57.953Z,19.10
2023-04-26T22:25:25.263Z,17.40
2023-04-26T22:27:52.475Z,12.95
2023-04-26T22:30:24.944Z,15.23
2023-04-26T22:32:57.848Z,13.32
2023-04-26T22:35:25.330Z,12.93
2023-04-26T22:37:52.623Z,13.95
2023-04-26T22:40:19.664Z,15.68
2023-04-26T22:42:46.684Z,11.38
2023-04-26T22:45:13.802Z,12.65
2023-04-26T22:47:40.980Z,12.63
2023-04-26T22:50:08.203Z,9.57
2023-04-26T22:52:35.440Z,11.80
2023-04-26T22:55:02.426Z,10.50
2023-04-26T22:57:29.700Z,10.52
2023-04-26T22:59:56.732Z,12.68
2023-04-26T23:02:23.823Z,15.48
2023-04-26T23:04:50.885Z,7.47
2023-04-26T23:07:17.736Z,9.85
2023-04-26T23:09:44.536Z,7.88
2023-04-26T23:12:11.433Z,8.85
2023-04-26T23:14:38.283Z,8.18
2023-04-26T23:17:05.690Z,9.98
2023-04-26T23:19:33.194Z,7.18
2023-04-26T23:22:00.220Z,10.15
2023-04-26T23:24:27.170Z,10.45
2023-04-26T23:26:54.392Z,10.00
2023-04-26T23:29:21.241Z,11.85
2023-04-26T23:31:48.054Z,10.68
2023-04-26T23:34:14.873Z,10.02
2023-04-26T23:36:41.699Z,8.00
2023-04-26T23:39:08.931Z,10.40
2023-04-26T23:41:36.111Z,8.60
2023-04-26T23:44:02.946Z,11.98
2023-04-26T23:46:29.783Z,16.23
2023-04-26T23:48:56.574Z,11.07
2023-04-26T23:51:23.375Z,8.05
2023-04-26T23:53:50.152Z,13.65
2023-04-26T23:56:16.963Z,11.48
2023-04-26T23:58:43.735Z,13.00
